createdAt,value
2022-10-17T00:01:23.179Z,62.40
2022-10-17T00:03:52.493Z,62.00
2022-10-17T00:06:20.785Z,61.80
2022-10-17T00:08:50.036Z,61.60
2022-10-17T00:11:22.157Z,61.70
2022-10-17T00:13:51.751Z,61.80
2022-10-17T00:16:27.024Z,61.80
2022-10-17T00:18:56.067Z,61.90
2022-10-17T00:21:25.433Z,61.40
2022-10-17T00:23:55.125Z,61.60
2022-10-17T00:26:23.873Z,61.60
2022-10-17T00:28:53.841Z,61.80
2022-10-17T00:31:24.389Z,61.90
2022-10-17T00:33:54.580Z,61.80
2022-10-17T00:36:25.082Z,62.00
2022-10-17T00:38:55.687Z,61.90
2022-10-17T00:41:27.212Z,62.30
2022-10-17T00:44:01.401Z,62.10
2022-10-17T00:46:33.231Z,62.10
2022-10-17T00:49:07.972Z,61.80
2022-10-17T00:51:42.296Z,61.70
2022-10-17T00:54:12.670Z,61.70
2022-10-17T00:56:42.023Z,61.70
2022-10-17T00:59:14.665Z,61.80
2022-10-17T01:01:49.771Z,61.90
2022-10-17T01:04:20.308Z,62.20
2022-10-17T01:06:48.604Z,61.90
2022-10-17T01:09:17.325Z,61.80
2022-10-17T01:11:52.253Z,61.70
2022-10-17T01:14:30.913Z,62.40
2022-10-17T01:17:06.486Z,62.60
2022-10-17T01:19:55.653Z,62.60
2022-10-17T01:22:28.112Z,62.30
2022-10-17T01:25:14.601Z,62.20
2022-10-17T01:27:56.486Z,62.40
2022-10-17T01:30:44.745Z,62.70
2022-10-17T01:33:16.703Z,62.60
2022-10-17T01:35:53.898Z,62.80
2022-10-17T01:38:24.730Z,62.80
2022-10-17T01:41:01.338Z,62.70
2022-10-17T01:43:35.280Z,62.90
2022-10-17T01:46:11.098Z,62.80
2022-10-17T01:48:42.090Z,62.90
2022-10-17T01:51:17.044Z,63.00
2022-10-17T01:53:50.282Z,62.90
2022-10-17T01:56:21.651Z,62.90
2022-10-17T01:58:53.990Z,62.70
2022-10-17T02:01:25.482Z,62.50
2022-10-17T02:03:55.511Z,62.70
2022-10-17T02:06:24.086Z,62.80
2022-10-17T02:08:53.163Z,62.80
2022-10-17T02:11:24.326Z,62.60
2022-10-17T02:14:15.132Z,62.50
2022-10-17T02:16:57.341Z,62.90
2022-10-17T02:19:36.667Z,62.70
2022-10-17T02:22:18.085Z,62.80
2022-10-17T02:24:51.071Z,62.60
2022-10-17T02:27:30.602Z,62.60
2022-10-17T02:30:07.210Z,62.40
2022-10-17T02:32:46.733Z,62.50
2022-10-17T02:35:21.323Z,62.10
2022-10-17T02:37:52.299Z,62.30
2022-10-17T02:40:23.606Z,62.40
2022-10-17T02:42:54.518Z,62.70
2022-10-17T02:45:25.627Z,62.60
2022-10-17T02:48:00.287Z,63.00
2022-10-17T02:50:35.402Z,62.70
2022-10-17T02:53:10.175Z,62.80
2022-10-17T02:55:44.581Z,62.50
2022-10-17T02:58:19.920Z,62.10
2022-10-17T03:00:49.151Z,62.70
2022-10-17T03:03:23.734Z,62.20
2022-10-17T03:05:53.260Z,62.10
2022-10-17T03:08:22.327Z,62.20
2022-10-17T03:10:51.527Z,62.50
2022-10-17T03:13:19.919Z,62.40
2022-10-17T03:15:49.062Z,62.40
2022-10-17T03:18:17.369Z,62.30
2022-10-17T03:20:47.159Z,62.10
2022-10-17T03:23:15.643Z,61.90
2022-10-17T03:25:44.025Z,62.10
2022-10-17T03:28:13.205Z,62.40
2022-10-17T03:30:41.832Z,62.30
2022-10-17T03:33:10.424Z,62.80
2022-10-17T03:35:41.057Z,62.50
2022-10-17T03:38:11.321Z,62.40
2022-10-17T03:40:40.187Z,62.50
2022-10-17T03:43:11.463Z,62.40
2022-10-17T03:45:40.332Z,62.40
2022-10-17T03:48:08.650Z,62.40
2022-10-17T03:50:37.121Z,63.00
2022-10-17T03:53:05.470Z,62.60
2022-10-17T03:55:35.969Z,62.90
2022-10-17T03:58:04.403Z,62.80
2022-10-17T04:00:32.915Z,62.30
2022-10-17T04:03:01.642Z,62.60
2022-10-17T04:05:30.671Z,62.50
2022-10-17T04:08:02.373Z,62.40
2022-10-17T04:10:33.308Z,62.50
2022-10-17T04:13:03.059Z,62.60
2022-10-17T04:15:31.732Z,62.00
2022-10-17T04:18:00.157Z,62.20
2022-10-17T04:20:28.847Z,62.40
2022-10-17T04:22:57.776Z,62.10
2022-10-17T04:25:26.129Z,62.10
2022-10-17T04:27:55.648Z,62.00
2022-10-17T04:30:26.092Z,62.20
2022-10-17T04:32:54.481Z,62.10
2022-10-17T04:35:22.894Z,62.20
2022-10-17T04:37:51.543Z,62.10
2022-10-17T04:40:22.562Z,61.80
2022-10-17T04:42:52.648Z,61.70
2022-10-17T04:45:21.155Z,61.80
2022-10-17T04:47:52.475Z,61.40
2022-10-17T04:50:20.866Z,61.30
2022-10-17T04:52:50.393Z,61.20
2022-10-17T04:55:19.487Z,61.00
2022-10-17T04:57:47.991Z,62.40
2022-10-17T05:00:16.895Z,61.30
2022-10-17T05:02:45.196Z,61.20
2022-10-17T05:05:14.887Z,61.00
2022-10-17T05:07:43.478Z,62.60
2022-10-17T05:10:12.035Z,62.70
2022-10-17T05:12:41.380Z,62.90
2022-10-17T05:15:11.057Z,62.70
2022-10-17T05:17:40.060Z,62.40
2022-10-17T05:20:09.790Z,62.40
2022-10-17T05:22:41.971Z,63.00
2022-10-17T05:25:11.275Z,62.80
2022-10-17T05:27:39.828Z,62.40
2022-10-17T05:30:09.645Z,62.70
2022-10-17T05:32:38.109Z,62.60
2022-10-17T05:35:07.849Z,62.80
2022-10-17T05:37:36.401Z,62.70
2022-10-17T05:40:07.851Z,63.00
2022-10-17T05:42:37.114Z,62.60
2022-10-17T05:45:06.486Z,62.50
2022-10-17T05:47:35.095Z,62.40
2022-10-17T05:50:03.632Z,62.40
2022-10-17T05:52:35.277Z,62.60
2022-10-17T05:55:10.405Z,62.50
2022-10-17T05:57:38.972Z,62.50
2022-10-17T06:00:11.213Z,62.50
2022-10-17T06:02:40.245Z,62.50
2022-10-17T06:05:09.343Z,62.20
2022-10-17T06:07:37.843Z,62.40
2022-10-17T06:10:08.447Z,62.40
2022-10-17T06:12:37.155Z,62.40
2022-10-17T06:15:06.461Z,62.50
2022-10-17T06:17:35.192Z,62.40
2022-10-17T06:20:03.697Z,62.70
2022-10-17T06:22:32.488Z,62.70
2022-10-17T06:25:01.121Z,62.30
2022-10-17T06:27:31.608Z,62.30
2022-10-17T06:29:59.958Z,63.00
2022-10-17T06:32:28.715Z,62.80
2022-10-17T06:34:57.570Z,61.70
2022-10-17T06:37:26.522Z,61.10
2022-10-17T06:39:55.866Z,61.60
2022-10-17T06:42:24.160Z,61.30
2022-10-17T06:44:54.326Z,61.40
2022-10-17T06:47:22.660Z,61.40
2022-10-17T06:49:51.146Z,61.60
2022-10-17T06:52:19.583Z,61.40
2022-10-17T06:54:48.039Z,61.30
2022-10-17T06:57:16.610Z,61.10
2022-10-17T06:59:45.245Z,61.30
2022-10-17T07:02:15.221Z,61.00
2022-10-17T07:04:46.186Z,61.20
2022-10-17T07:07:15.015Z,61.10
2022-10-17T07:09:43.357Z,61.30
2022-10-17T07:12:12.806Z,61.20
2022-10-17T07:14:42.326Z,61.40
2022-10-17T07:17:11.479Z,61.30
2022-10-17T07:19:43.510Z,61.10
2022-10-17T07:22:11.948Z,61.00
2022-10-17T07:24:40.456Z,61.00
2022-10-17T07:27:09.256Z,61.00
2022-10-17T07:29:38.035Z,60.70
2022-10-17T07:32:08.573Z,61.00
2022-10-17T07:34:37.483Z,60.70
2022-10-17T07:37:07.412Z,60.60
2022-10-17T07:39:36.799Z,60.20
2022-10-17T07:42:07.879Z,60.40
2022-10-17T07:44:36.707Z,60.20
2022-10-17T07:47:05.130Z,59.80
2022-10-17T07:49:33.499Z,59.80
2022-10-17T07:52:01.917Z,59.50
2022-10-17T07:54:31.532Z,59.60
2022-10-17T07:57:00.176Z,59.70
2022-10-17T07:59:28.472Z,59.40
2022-10-17T08:01:57.140Z,59.10
2022-10-17T08:04:25.916Z,58.90
2022-10-17T08:07:11.668Z,59.30
2022-10-17T08:09:47.962Z,57.60
2022-10-17T08:12:16.992Z,56.90
2022-10-17T08:14:45.612Z,57.00
2022-10-17T08:17:14.194Z,56.80
2022-10-17T08:19:43.114Z,56.30
2022-10-17T08:22:13.331Z,56.10
2022-10-17T08:24:42.821Z,55.80
2022-10-17T08:27:13.840Z,55.50
2022-10-17T08:29:43.079Z,55.60
2022-10-17T08:32:12.137Z,55.60
2022-10-17T08:34:40.542Z,55.70
2022-10-17T08:39:37.404Z,55.70
2022-10-17T08:42:20.713Z,54.90
2022-10-17T08:44:56.217Z,55.00
2022-10-17T08:47:35.096Z,54.50
2022-10-17T08:50:07.847Z,54.70
2022-10-17T08:52:41.289Z,54.50
2022-10-17T08:55:16.471Z,53.70
2022-10-17T08:57:49.507Z,54.30
2022-10-17T09:00:20.927Z,53.30
2022-10-17T09:03:00.718Z,52.50
2022-10-17T09:05:41.021Z,52.10
2022-10-17T09:08:22.042Z,53.00
2022-10-17T09:10:58.440Z,52.10
2022-10-17T09:16:34.809Z,50.80
2022-10-17T09:19:08.931Z,51.10
2022-10-17T09:21:44.782Z,49.70
2022-10-17T09:24:19.339Z,49.80
2022-10-17T09:26:51.199Z,49.10
2022-10-17T09:29:24.672Z,49.00
2022-10-17T09:31:59.414Z,48.60
2022-10-17T09:34:32.043Z,48.70
2022-10-17T09:37:02.023Z,48.50
2022-10-17T09:39:32.030Z,49.30
2022-10-17T09:42:02.652Z,48.20
2022-10-17T09:44:36.701Z,47.20
2022-10-17T09:47:18.925Z,47.40
2022-10-17T09:49:48.907Z,47.10
2022-10-17T09:52:20.061Z,46.30
2022-10-17T09:54:52.318Z,45.80
2022-10-17T09:57:23.203Z,45.70
2022-10-17T10:00:00.829Z,45.00
2022-10-17T10:02:32.560Z,45.80
2022-10-17T10:05:06.065Z,45.00
2022-10-17T10:07:40.014Z,44.40
2022-10-17T10:10:24.261Z,45.10
2022-10-17T10:13:06.362Z,44.90
2022-10-17T10:15:38.984Z,44.90
2022-10-17T10:21:09.042Z,45.00
2022-10-17T10:23:40.658Z,44.40
2022-10-17T10:26:23.970Z,44.60
2022-10-17T10:28:59.446Z,43.30
2022-10-17T10:31:35.580Z,44.60
2022-10-17T10:34:17.190Z,42.70
2022-10-17T10:36:53.717Z,41.70
2022-10-17T10:39:34.703Z,41.80
2022-10-17T10:42:05.213Z,41.50
2022-10-17T10:44:37.906Z,42.00
2022-10-17T10:47:19.181Z,40.70
2022-10-17T10:49:48.337Z,41.40
2022-10-17T10:52:25.193Z,41.30
2022-10-17T10:55:04.895Z,41.50
2022-10-17T10:57:38.936Z,40.80
2022-10-17T11:00:15.738Z,40.60
2022-10-17T11:02:54.240Z,40.40
2022-10-17T11:05:29.561Z,40.40
2022-10-17T11:08:08.506Z,38.90
2022-10-17T11:10:43.087Z,40.30
2022-10-17T11:13:16.257Z,39.00
2022-10-17T11:15:50.332Z,38.90
2022-10-17T11:18:25.485Z,39.10
2022-10-17T11:20:57.776Z,38.90
2022-10-17T11:23:32.392Z,38.90
2022-10-17T11:26:06.946Z,37.70
2022-10-17T11:28:35.504Z,39.00
2022-10-17T11:31:08.872Z,38.30
2022-10-17T11:33:45.538Z,38.60
2022-10-17T11:36:22.300Z,38.30
2022-10-17T11:38:54.917Z,37.40
2022-10-17T11:41:31.937Z,37.30
2022-10-17T11:44:05.051Z,36.30
2022-10-17T11:46:36.993Z,36.10
2022-10-17T11:49:19.166Z,35.40
2022-10-17T11:52:01.162Z,34.60
2022-10-17T11:54:35.970Z,34.50
2022-10-17T11:57:24.793Z,35.20
2022-10-17T12:00:06.306Z,35.50
2022-10-17T12:02:40.483Z,34.80
2022-10-17T12:05:25.959Z,34.80
2022-10-17T12:08:02.481Z,34.40
2022-10-17T12:10:40.853Z,34.60
2022-10-17T12:13:47.948Z,34.20
2022-10-17T12:16:48.238Z,33.60
2022-10-17T12:19:28.814Z,34.40
2022-10-17T12:22:01.749Z,35.10
2022-10-17T12:24:40.900Z,34.80
2022-10-17T12:27:24.348Z,34.00
2022-10-17T12:30:00.438Z,34.60
2022-10-17T12:32:36.796Z,34.40
2022-10-17T12:35:22.727Z,34.60
2022-10-17T12:38:23.336Z,33.90
2022-10-17T12:40:54.493Z,34.10
2022-10-17T12:43:57.644Z,35.00
2022-10-17T12:46:52.113Z,34.30
2022-10-17T12:49:46.183Z,33.90
2022-10-17T12:52:55.113Z,34.30
2022-10-17T12:55:27.664Z,34.10
2022-10-17T12:58:00.310Z,34.60
2022-10-17T13:00:36.992Z,35.20
2022-10-17T13:03:13.157Z,34.90
2022-10-17T13:05:44.960Z,34.90
2022-10-17T13:08:20.375Z,34.20
2022-10-17T13:10:53.342Z,33.60
2022-10-17T13:13:26.980Z,34.20
2022-10-17T13:15:58.107Z,34.90
2022-10-17T13:18:29.673Z,35.00
2022-10-17T13:21:01.272Z,34.20
2022-10-17T13:23:36.530Z,34.60
2022-10-17T13:26:15.990Z,34.10
2022-10-17T13:28:44.857Z,33.70
2022-10-17T13:31:30.929Z,34.10
2022-10-17T13:34:01.046Z,34.50
2022-10-17T13:36:30.576Z,34.90
2022-10-17T13:39:00.615Z,33.50
2022-10-17T13:41:36.496Z,33.40
2022-10-17T13:44:12.611Z,33.40
2022-10-17T13:46:42.532Z,32.70
2022-10-17T13:49:25.984Z,33.50
2022-10-17T13:51:57.401Z,33.60
2022-10-17T13:54:41.587Z,33.90
2022-10-17T13:57:22.029Z,33.50
2022-10-17T13:59:52.464Z,32.90
2022-10-17T14:02:23.066Z,33.00
2022-10-17T14:05:16.666Z,32.70
2022-10-17T14:08:10.800Z,33.20
2022-10-17T14:10:42.805Z,33.70
2022-10-17T14:13:23.386Z,33.80
2022-10-17T14:15:53.029Z,34.40
2022-10-17T14:18:30.860Z,34.70
2022-10-17T14:23:54.357Z,34.40
2022-10-17T14:26:24.431Z,33.90
2022-10-17T14:29:07.275Z,34.00
2022-10-17T14:31:38.203Z,34.00
2022-10-17T14:34:07.148Z,34.20
2022-10-17T14:36:39.289Z,33.90
2022-10-17T14:39:17.056Z,34.60
2022-10-17T14:41:46.842Z,34.70
2022-10-17T14:44:30.742Z,35.00
2022-10-17T14:47:41.802Z,34.50
2022-10-17T14:50:08.400Z,34.60
2022-10-17T14:52:38.984Z,35.00
2022-10-17T14:55:24.380Z,35.20
2022-10-17T14:57:52.821Z,34.70
2022-10-17T15:00:23.720Z,34.60
2022-10-17T15:02:53.445Z,35.40
2022-10-17T15:05:23.261Z,35.30
2022-10-17T15:07:51.848Z,35.60
2022-10-17T15:10:36.236Z,35.50
2022-10-17T15:15:54.972Z,35.30
2022-10-17T15:18:23.207Z,35.40
2022-10-17T15:20:59.605Z,35.50
2022-10-17T15:23:35.116Z,36.90
2022-10-17T15:26:03.643Z,36.80
2022-10-17T15:28:33.541Z,36.80
2022-10-17T15:31:06.348Z,37.10
2022-10-17T15:33:34.909Z,37.30
2022-10-17T15:36:03.333Z,37.30
2022-10-17T15:38:31.547Z,37.40
2022-10-17T15:41:00.077Z,36.80
2022-10-17T15:43:29.407Z,36.50
2022-10-17T15:45:57.783Z,37.30
2022-10-17T15:48:31.883Z,36.70
2022-10-17T15:51:00.515Z,36.60
2022-10-17T15:53:28.924Z,37.20
2022-10-17T15:55:57.428Z,37.20
2022-10-17T15:58:28.671Z,37.60
2022-10-17T16:00:57.182Z,37.40
2022-10-17T16:03:28.209Z,37.70
2022-10-17T16:05:57.305Z,37.70
2022-10-17T16:08:25.944Z,38.10
2022-10-17T16:10:54.487Z,38.00
2022-10-17T16:13:26.181Z,38.00
2022-10-17T16:15:54.588Z,38.30
2022-10-17T16:18:23.747Z,38.30
2022-10-17T16:20:57.177Z,38.50
2022-10-17T16:23:27.761Z,38.60
2022-10-17T16:25:58.220Z,38.70
2022-10-17T16:28:26.694Z,39.00
2022-10-17T16:30:55.911Z,38.60
2022-10-17T16:33:24.791Z,39.10
2022-10-17T16:35:55.298Z,39.30
2022-10-17T16:38:23.731Z,39.20
2022-10-17T16:40:52.264Z,40.00
2022-10-17T16:43:20.757Z,40.20
2022-10-17T16:45:49.263Z,40.30
2022-10-17T16:48:17.779Z,40.60
2022-10-17T16:50:46.376Z,40.50
2022-10-17T16:53:15.990Z,40.60
2022-10-17T16:55:44.620Z,41.00
2022-10-17T16:58:13.689Z,40.90
2022-10-17T17:00:42.047Z,41.10
2022-10-17T17:03:10.401Z,41.50
2022-10-17T17:05:38.925Z,41.30
2022-10-17T17:08:10.389Z,42.50
2022-10-17T17:10:47.115Z,42.70
2022-10-17T17:13:15.501Z,42.80
2022-10-17T17:18:17.580Z,42.70
2022-10-17T17:20:45.904Z,42.80
2022-10-17T17:23:16.017Z,42.70
2022-10-17T17:25:46.032Z,42.30
2022-10-17T17:28:14.298Z,42.50
2022-10-17T17:30:42.598Z,42.90
2022-10-17T17:33:12.517Z,42.70
2022-10-17T17:35:40.891Z,42.90
2022-10-17T17:38:09.169Z,42.90
2022-10-17T17:40:37.416Z,42.90
2022-10-17T17:43:07.470Z,43.10
2022-10-17T17:45:36.312Z,43.00
2022-10-17T17:48:05.607Z,42.90
2022-10-17T17:50:36.767Z,42.60
2022-10-17T17:53:05.902Z,42.70
2022-10-17T17:55:34.735Z,43.20
2022-10-17T17:58:03.229Z,42.90
2022-10-17T18:00:34.878Z,43.30
2022-10-17T18:03:06.283Z,43.10
2022-10-17T18:05:34.726Z,43.20
2022-10-17T18:08:04.751Z,43.30
2022-10-17T18:10:33.278Z,43.40
2022-10-17T18:13:02.069Z,43.70
2022-10-17T18:15:30.474Z,43.90
2022-10-17T18:18:01.252Z,43.50
2022-10-17T18:20:29.644Z,43.90
2022-10-17T18:23:00.572Z,44.10
2022-10-17T18:25:31.872Z,44.40
2022-10-17T18:28:03.133Z,44.40
2022-10-17T18:30:34.437Z,44.00
2022-10-17T18:33:04.518Z,44.30
2022-10-17T18:35:32.732Z,44.60
2022-10-17T18:38:01.160Z,44.80
2022-10-17T18:40:29.649Z,44.60
2022-10-17T18:42:58.055Z,44.50
2022-10-17T18:45:26.411Z,44.90
2022-10-17T18:47:54.912Z,45.20
2022-10-17T18:50:26.163Z,45.10
2022-10-17T18:52:54.651Z,45.40
2022-10-17T18:55:23.452Z,45.10
2022-10-17T18:57:53.149Z,45.20
2022-10-17T19:00:21.575Z,45.30
2022-10-17T19:02:49.859Z,45.50
2022-10-17T19:05:18.457Z,45.50
2022-10-17T19:07:48.435Z,45.70
2022-10-17T19:10:17.078Z,45.70
2022-10-17T19:12:45.217Z,46.10
2022-10-17T19:15:14.199Z,46.00
2022-10-17T19:17:44.502Z,46.30
2022-10-17T19:20:15.449Z,46.30
2022-10-17T19:22:43.764Z,46.20
2022-10-17T19:25:13.613Z,46.20
2022-10-17T19:27:44.384Z,46.50
2022-10-17T19:30:13.071Z,46.60
2022-10-17T19:32:41.714Z,46.70
2022-10-17T19:35:13.962Z,46.90
2022-10-17T19:37:43.220Z,46.60
2022-10-17T19:40:14.415Z,46.90
2022-10-17T19:42:42.740Z,47.00
2022-10-17T19:45:11.317Z,47.10
2022-10-17T19:47:39.811Z,46.90
2022-10-17T19:50:08.982Z,47.20
2022-10-17T19:52:37.427Z,47.10
2022-10-17T19:55:11.565Z,47.30
2022-10-17T19:57:41.424Z,47.50
2022-10-17T20:00:15.003Z,47.70
2022-10-17T20:02:43.802Z,47.60
2022-10-17T20:05:18.635Z,48.00
2022-10-17T20:07:47.678Z,47.90
2022-10-17T20:10:18.389Z,47.40
2022-10-17T20:12:48.291Z,47.60
2022-10-17T20:15:17.848Z,47.70
2022-10-17T20:17:46.550Z,47.60
2022-10-17T20:20:17.864Z,48.00
2022-10-17T20:22:46.540Z,48.40
2022-10-17T20:25:15.211Z,48.00
2022-10-17T20:27:46.112Z,48.30
2022-10-17T20:30:18.989Z,48.10
2022-10-17T20:32:47.849Z,48.70
2022-10-17T20:35:16.217Z,48.40
2022-10-17T20:37:44.497Z,48.50
2022-10-17T20:43:01.864Z,48.50
2022-10-17T20:45:44.172Z,48.00
2022-10-17T20:48:23.489Z,48.50
2022-10-17T20:50:52.323Z,48.70
2022-10-17T20:53:37.861Z,48.60
2022-10-17T20:56:08.398Z,48.70
2022-10-17T20:58:39.512Z,48.90
2022-10-17T21:01:10.950Z,48.30
2022-10-17T21:03:43.863Z,48.80
2022-10-17T21:06:15.676Z,49.80
2022-10-17T21:08:45.729Z,48.50
2022-10-17T21:11:16.067Z,49.80
2022-10-17T21:13:44.954Z,49.80
2022-10-17T21:16:16.189Z,50.00
2022-10-17T21:18:50.553Z,50.10
2022-10-17T21:21:21.622Z,50.30
2022-10-17T21:23:51.707Z,50.50
2022-10-17T21:26:21.356Z,50.20
2022-10-17T21:28:50.548Z,50.40
2022-10-17T21:31:21.952Z,50.40
2022-10-17T21:33:52.129Z,50.30
2022-10-17T21:36:21.642Z,50.00
2022-10-17T21:38:51.718Z,50.40
2022-10-17T21:41:21.909Z,50.20
2022-10-17T21:43:53.989Z,50.30
2022-10-17T21:46:24.566Z,50.30
2022-10-17T21:48:56.308Z,50.70
2022-10-17T21:51:25.971Z,50.70
2022-10-17T21:53:55.897Z,50.70
2022-10-17T21:56:27.946Z,50.50
2022-10-17T21:58:57.552Z,50.50
2022-10-17T22:01:28.874Z,50.90
2022-10-17T22:03:59.901Z,50.60
2022-10-17T22:06:41.162Z,51.00
2022-10-17T22:09:14.702Z,51.00
2022-10-17T22:11:45.124Z,50.90
2022-10-17T22:14:14.950Z,51.20
2022-10-17T22:16:46.716Z,51.30
2022-10-17T22:19:19.899Z,51.30
2022-10-17T22:21:48.465Z,50.80
2022-10-17T22:24:19.263Z,51.00
2022-10-17T22:26:51.047Z,51.20
2022-10-17T22:29:19.422Z,51.40
2022-10-17T22:31:49.108Z,51.10
2022-10-17T22:34:19.504Z,51.50
2022-10-17T22:36:48.911Z,51.20
2022-10-17T22:39:18.305Z,51.20
2022-10-17T22:41:47.152Z,51.40
2022-10-17T22:44:15.583Z,51.50
2022-10-17T22:46:43.863Z,51.90
2022-10-17T22:49:13.690Z,51.90
2022-10-17T22:51:42.300Z,51.70
2022-10-17T22:54:10.641Z,51.70
2022-10-17T22:56:38.857Z,51.50
2022-10-17T22:59:07.658Z,51.50
2022-10-17T23:01:36.778Z,51.40
2022-10-17T23:04:05.400Z,51.80
2022-10-17T23:06:34.959Z,51.50
2022-10-17T23:09:03.774Z,51.90
2022-10-17T23:11:32.359Z,51.90
2022-10-17T23:14:00.859Z,51.90
2022-10-17T23:16:29.099Z,51.90
2022-10-17T23:18:58.706Z,51.80
2022-10-17T23:21:27.039Z,52.20
2022-10-17T23:23:56.745Z,51.60
2022-10-17T23:26:25.093Z,51.90
2022-10-17T23:28:55.881Z,52.20
2022-10-17T23:31:24.242Z,52.50
2022-10-17T23:33:52.559Z,52.00
2022-10-17T23:36:21.740Z,52.20
2022-10-17T23:38:52.690Z,52.40
2022-10-17T23:41:24.805Z,52.20
2022-10-17T23:43:53.087Z,52.70
2022-10-17T23:46:21.338Z,52.60
2022-10-17T23:48:49.827Z,52.90
2022-10-17T23:51:18.171Z,52.20
2022-10-17T23:53:46.908Z,52.50
2022-10-17T23:56:15.592Z,52.50
2022-10-17T23:58:46.151Z,52.40
